Alma, Missouri
Current Conditions -  °F | °C
As of 8:58 AM on Saturday 20 Dec 2014 (Local Time) from KSZL Reporting Station
Overcast Overcast  
Wind Chill: 28°   Ceiling: 900
Heat Index: 36°   Visibility: 10mi
Dew Point: 33°   Wind: 12mph
Humidity: 90%   Direction: 230°SW
Pressure: 30.22"   Gusts: NA
Location:  39.1°N, 93.55°W
Report Text: KSZL 201458Z AUTO 23010KT 10SM OVC009 02/01 A3022 RMK AO2 SLP243 T00220007 50007 $
Loading
Personal Weather Stations






























Interactive Weather Map New forecast layout! Learn more

10-Day Weather Forecast

Advertisements
Track Severe Weather on mobile